Terminal Aerodrome Forecast
Issued by NWS

Home | Current Version | Previous Version | Graphics & Text | Print | Product List | Glossary On
Versions: 1 2 3 4 5 6 7 8 9 10 11 12 13 14
000
FTUS43 KGRB 010500
TAFCWA
TAF
KCWA 010525Z 0106/0206 00000KT P6SM SKC
     FM011600 24009KT P6SM FEW040 BKN250
     FM012300 20006KT P6SM SCT050 BKN120
      AMD LTD TO CLD VIS AND WIND TIL 011200=

USA.gov is the U.S. government's official web portal to all federal, state and local government web resources and services.